Newport, ME (04953)

8:15 AM EDT on July 24, 2016 (GMT -0400)
Camp Benson | | Change Station

Elev 236 ft 44.85 °N, 69.28 °W | Updated 3 minutes ago

Partly Cloudy
Partly Cloudy
79.7 °F
Feels Like 81 °F
N
2.2
Wind Variable Wind from SW

Today
High -- | Low -- °F
--% Chance of Precip.
Yesterday
High -- | Low -- °F
Precip. -- in
Pressure 29.88 in
Visibility 10.0 miles
Clouds Few 7000 ft
Few 25000 ft
Heat Index 81 °F
Dew Point 60 °F
Humidity 51%
Rainfall 0.00 in
Snow Depth Not available.
5:14 AM 8:11 PM
Waning Gibbous, 77% visible
METAR KBGR 241153Z 33010KT 10SM FEW070 FEW250 23/14 A2989 RMK AO2 SLP118 70001 T02280144 10228 20194 51021
Pressure 29.88 in
Visibility 10.0 miles
Clouds Few 7000 ft
Few 25000 ft
Heat Index 81 °F
Dew Point 60 °F
Humidity 51%
Rainfall 0.00 in
Snow Depth Not available.
5:14 AM 8:11 PM
Waning Gibbous, 77% visible
METAR KBGR 241153Z 33010KT 10SM FEW070 FEW250 23/14 A2989 RMK AO2 SLP118 70001 T02280144 10228 20194 51021

10-Day Weather Forecast

Almanac

Astronomy

Jul. 24, 2016 Rise Set
Actual Time
Civil Twilight
Nautical Twilight
Astronomical Twilight
Moon
Length of Visible Light
Length of Day
Tomorrow will be .
, % of the Moon is Illuminated

Today's Extremes

State Highs State Lows

Community

WunderPhotos

Upload Photos

1,927,053 photos uploaded!

WunderBlog® & News

Nearby

Air Quality

  Air Quality AQ Index Pollutant
Not available.

Snow Depth

Station Depth Elevation

Earthquake Activity

City Distance Mag. Time & Date
Minimum magnitude displayed is 2.5.

Coastal Water Temperatures

Place Temperature

Stations

Nearby Weather Stations

Station Location Temp. Windchill Dew Point Humidity Wind Precip. Elev Updated Type
                   

Watches & Warnings

There are currently no watches in effect.